Time;durP1;ratioP1;P1;durP2;ratioP2;P2;SDS_P1;SDS_P2;PMS_P1;PMS_P2;Temp;Humidity;BMP_temperature;BMP_pressure;BME280_temperature;BME280_humidity;BME280_pressure;Samples;Min_cycle;Max_cycle;Signal;HPM_P1;HPM_P2
2022/09/07 00:01:01;;;;;;;10.98;8.18;;;18.30;99.90;;;;;;5068893;28;20066;-67
2022/09/07 00:03:26;;;;;;;13.23;7.85;;;18.30;99.90;;;;;;5067950;28;20545;-67
2022/09/07 00:05:52;;;;;;;12.60;8.95;;;18.30;99.90;;;;;;5069332;28;20040;-67
2022/09/07 00:08:21;;;;;;;12.02;8.75;;;18.30;99.90;;;;;;5050868;28;20036;-67
2022/09/07 00:10:58;;;;;;;12.07;8.10;;;18.30;99.90;;;;;;5069872;28;20041;-67
2022/09/07 00:13:26;;;;;;;12.93;7.57;;;18.20;99.90;;;;;;5068274;28;20040;-67
2022/09/07 00:15:52;;;;;;;16.08;8.60;;;18.20;99.90;;;;;;5069633;28;20029;-66
2022/09/07 00:18:18;;;;;;;9.20;8.30;;;18.20;99.90;;;;;;5068515;28;20543;-67
2022/09/07 00:20:44;;;;;;;11.90;8.90;;;18.20;99.90;;;;;;5080396;28;20124;-67
2022/09/07 00:23:10;;;;;;;12.43;8.60;;;18.20;99.90;;;;;;5067660;28;20040;-66
2022/09/07 00:25:38;;;;;;;13.50;8.73;;;18.10;99.90;;;;;;5048694;28;20075;-67
2022/09/07 00:28:05;;;;;;;10.13;7.90;;;18.10;99.90;;;;;;5054527;28;20036;-66
2022/09/07 00:30:31;;;;;;;12.75;8.70;;;18.10;99.90;;;;;;5070542;28;20040;-67
2022/09/07 00:32:57;;;;;;;9.07;8.10;;;18.10;99.90;;;;;;5055543;28;20498;-67
2022/09/07 00:35:23;;;;;;;13.38;8.88;;;18.10;99.90;;;;;;5053956;28;20106;-66
2022/09/07 00:37:49;;;;;;;11.32;8.65;;;18.20;99.90;;;;;;5071575;28;20059;-67
2022/09/07 00:40:14;;;;;;;11.95;8.63;;;18.10;99.90;;;;;;5054312;28;20040;-67
2022/09/07 00:42:40;;;;;;;9.95;8.50;;;18.10;99.90;;;;;;5072321;28;20039;-67
2022/09/07 00:45:06;;;;;;;13.52;8.73;;;18.10;99.90;;;;;;5054794;28;20039;-67
2022/09/07 00:47:40;;;;;;;10.68;8.75;;;18.10;99.90;;;;;;5072525;28;20048;-66
2022/09/07 00:50:34;;;;;;;16.15;8.20;;;18.00;99.90;;;;;;5071877;28;20546;-67
2022/09/07 00:53:09;;;;;;;13.10;9.15;;;18.00;99.90;;;;;;5070207;28;20555;-66
2022/09/07 00:55:37;;;;;;;11.90;9.63;;;18.00;99.90;;;;;;5068386;28;20537;-67
2022/09/07 00:58:04;;;;;;;13.23;9.32;;;18.00;99.90;;;;;;5070107;28;20274;-67
2022/09/07 01:00:30;;;;;;;10.85;8.88;;;18.00;99.90;;;;;;5070954;28;20045;-67
2022/09/07 01:02:57;;;;;;;14.43;9.43;;;18.00;99.90;;;;;;5019563;28;20501;-66
2022/09/07 01:05:51;;;;;;;12.70;9.02;;;17.80;99.90;;;;;;5070605;28;20107;-67
2022/09/07 01:08:17;;;;;;;16.85;10.48;;;17.80;99.90;;;;;;5071046;28;20136;-68
2022/09/07 01:10:45;;;;;;;14.27;10.30;;;17.70;99.90;;;;;;5069516;28;20040;-66
2022/09/07 01:13:11;;;;;;;16.23;10.63;;;17.60;99.90;;;;;;5071780;28;20094;-66
2022/09/07 01:15:42;;;;;;;14.57;11.75;;;17.50;99.90;;;;;;5071605;28;20875;-67
2022/09/07 01:18:08;;;;;;;19.40;13.98;;;17.40;99.90;;;;;;5073573;28;20074;-66
2022/09/07 01:20:49;;;;;;;19.15;15.38;;;17.40;99.90;;;;;;5071120;28;20670;-66
2022/09/07 01:23:39;;;;;;;18.90;16.30;;;17.30;99.90;;;;;;5073250;28;20086;-67
2022/09/07 01:26:30;;;;;;;17.13;15.32;;;17.30;99.90;;;;;;5071868;28;20442;-67
2022/09/07 01:29:08;;;;;;;19.10;16.13;;;17.30;99.90;;;;;;5072955;28;20048;-67
2022/09/07 01:31:47;;;;;;;22.27;16.98;;;17.30;99.90;;;;;;5071442;28;20115;-69
2022/09/07 01:34:20;;;;;;;20.98;15.07;;;17.20;99.90;;;;;;5071102;28;20169;-68
2022/09/07 01:36:55;;;;;;;22.35;16.08;;;17.20;99.90;;;;;;5054690;28;20123;-69
2022/09/07 01:39:29;;;;;;;17.40;15.13;;;17.20;99.90;;;;;;5073453;28;20047;-67
2022/09/07 01:42:03;;;;;;;18.92;15.70;;;17.20;99.90;;;;;;5055202;28;20037;-69
2022/09/07 01:44:36;;;;;;;15.82;12.68;;;17.20;99.90;;;;;;5071271;28;20057;-69
2022/09/07 01:47:08;;;;;;;15.88;11.35;;;17.10;99.90;;;;;;5054826;28;20037;-69
2022/09/07 01:49:51;;;;;;;13.13;11.38;;;17.00;99.90;;;;;;5071542;28;20255;-70
2022/09/07 01:52:30;;;;;;;13.65;12.15;;;17.00;99.90;;;;;;5069467;28;20126;-68
2022/09/07 01:55:17;;;;;;;19.52;15.05;;;16.90;99.90;;;;;;5072827;28;20485;-69
2022/09/07 01:57:49;;;;;;;23.50;16.60;;;16.90;99.90;;;;;;5071642;28;20533;-69
2022/09/07 02:00:18;;;;;;;17.27;15.48;;;16.80;99.90;;;;;;5054869;28;20055;-68
2022/09/07 02:02:47;;;;;;;17.38;14.95;;;16.80;99.90;;;;;;5054947;28;20048;-68
2022/09/07 02:05:35;;;;;;;25.20;16.10;;;16.80;99.90;;;;;;5071461;28;20171;-68
2022/09/07 02:08:08;;;;;;;16.30;14.60;;;16.80;99.90;;;;;;5069562;28;20041;-68
2022/09/07 02:10:37;;;;;;;18.13;14.02;;;16.80;99.90;;;;;;5072856;28;20036;-68
2022/09/07 02:13:22;;;;;;;18.80;13.80;;;16.80;99.90;;;;;;5071799;28;20044;-68
2022/09/07 02:16:04;;;;;;;20.63;15.98;;;16.80;99.90;;;;;;5072601;28;20097;-68
2022/09/07 02:18:46;;;;;;;17.07;13.53;;;16.80;99.90;;;;;;5068865;28;20063;-67
2022/09/07 02:21:16;;;;;;;17.73;14.60;;;16.80;99.90;;;;;;5053665;28;20052;-67
2022/09/07 02:23:56;;;;;;;17.45;14.98;;;16.80;99.90;;;;;;5071050;28;20059;-67
2022/09/07 02:26:24;;;;;;;18.17;14.98;;;16.80;99.90;;;;;;5070876;28;20482;-66
2022/09/07 02:28:50;;;;;;;20.52;15.95;;;16.80;99.90;;;;;;5071853;28;20485;-67
2022/09/07 02:31:16;;;;;;;18.63;16.00;;;16.80;99.90;;;;;;5070651;28;20067;-66
2022/09/07 02:33:42;;;;;;;21.05;16.63;;;16.80;99.90;;;;;;5068993;28;20051;-66
2022/09/07 02:36:10;;;;;;;18.15;14.88;;;16.80;99.90;;;;;;5070626;28;20045;-66
2022/09/07 02:38:36;;;;;;;18.70;16.20;;;16.80;99.90;;;;;;5069554;28;20047;-66
2022/09/07 02:41:03;;;;;;;19.02;15.07;;;16.80;99.90;;;;;;5071005;28;20048;-66
2022/09/07 02:43:30;;;;;;;17.77;13.65;;;16.80;99.90;;;;;;5069620;28;20401;-66
2022/09/07 02:46:11;;;;;;;16.58;14.82;;;16.80;99.90;;;;;;5070629;28;20094;-65
2022/09/07 02:48:56;;;;;;;15.73;14.13;;;16.80;99.90;;;;;;5069100;28;20044;-66
2022/09/07 02:51:42;;;;;;;19.45;15.45;;;16.80;99.90;;;;;;5067122;28;20040;-66
2022/09/07 02:54:44;;;;;;;16.02;14.32;;;16.80;99.90;;;;;;5071137;28;20045;-66
2022/09/07 02:57:15;;;;;;;19.27;16.20;;;16.70;99.90;;;;;;5051010;28;20465;-66
2022/09/07 02:59:52;;;;;;;17.25;14.80;;;16.70;99.90;;;;;;5071485;28;20040;-66
2022/09/07 03:02:33;;;;;;;20.58;16.60;;;16.70;99.90;;;;;;5069910;28;20615;-65
2022/09/07 03:05:09;;;;;;;18.85;16.75;;;16.70;99.90;;;;;;5070346;28;20048;-66
2022/09/07 03:07:43;;;;;;;19.05;16.35;;;16.70;99.90;;;;;;5068760;28;20106;-66
2022/09/07 03:10:09;;;;;;;19.98;16.85;;;16.70;99.90;;;;;;5068744;28;20090;-66
2022/09/07 03:12:44;;;;;;;21.75;17.80;;;16.70;99.90;;;;;;5066248;28;20039;-65
2022/09/07 03:15:12;;;;;;;21.20;17.23;;;16.60;99.90;;;;;;5061698;28;20032;-65
2022/09/07 03:17:39;;;;;;;18.42;15.48;;;16.70;99.90;;;;;;5068377;28;20051;-65
2022/09/07 03:20:05;;;;;;;18.13;14.68;;;16.70;99.90;;;;;;5069391;28;20546;-67
2022/09/07 03:22:32;;;;;;;19.77;16.38;;;16.60;99.90;;;;;;5068941;28;20041;-66
2022/09/07 03:24:58;;;;;;;18.40;15.88;;;16.60;99.90;;;;;;5069165;28;20040;-65
2022/09/07 03:27:23;;;;;;;20.23;16.13;;;16.60;99.90;;;;;;5070496;28;20125;-66
2022/09/07 03:29:49;;;;;;;20.42;15.90;;;16.60;99.90;;;;;;5070483;28;20038;-65
2022/09/07 03:32:15;;;;;;;22.23;17.08;;;16.60;99.90;;;;;;5051595;28;20424;-66
2022/09/07 03:34:40;;;;;;;27.00;20.27;;;16.60;99.90;;;;;;5069907;28;20087;-66
2022/09/07 03:37:06;;;;;;;20.98;18.33;;;16.60;99.90;;;;;;5070352;28;20044;-67
2022/09/07 03:39:35;;;;;;;21.83;19.13;;;16.60;99.90;;;;;;5068298;28;20055;-66
2022/09/07 03:42:01;;;;;;;25.00;19.75;;;16.60;99.90;;;;;;5070309;28;20099;-66
2022/09/07 03:44:26;;;;;;;26.13;20.02;;;16.60;99.90;;;;;;5067851;28;20509;-64
2022/09/07 03:46:52;;;;;;;26.48;22.80;;;16.60;99.90;;;;;;5070584;28;20048;-65
2022/09/07 03:49:18;;;;;;;29.08;21.77;;;16.60;99.90;;;;;;5052259;28;20036;-65
2022/09/07 03:51:43;;;;;;;24.08;20.83;;;16.60;99.90;;;;;;5071072;28;20115;-66
2022/09/07 03:54:09;;;;;;;29.10;23.00;;;16.60;99.90;;;;;;5069252;28;20094;-66
2022/09/07 03:56:35;;;;;;;26.70;21.15;;;16.60;99.90;;;;;;5052275;28;20473;-66
2022/09/07 03:59:01;;;;;;;30.33;23.83;;;16.60;99.90;;;;;;5068653;28;20034;-66
2022/09/07 04:01:27;;;;;;;27.13;23.15;;;16.60;99.90;;;;;;5069962;28;20040;-65
2022/09/07 04:03:56;;;;;;;27.70;22.80;;;16.60;99.90;;;;;;5068094;28;20075;-65
2022/09/07 04:06:22;;;;;;;30.05;23.67;;;16.60;99.90;;;;;;5070487;28;20115;-66
2022/09/07 04:08:48;;;;;;;26.30;22.92;;;16.60;99.90;;;;;;5069548;28;20111;-64
2022/09/07 04:11:17;;;;;;;27.52;23.05;;;16.50;99.90;;;;;;5070880;28;20461;-65
2022/09/07 04:13:43;;;;;;;25.65;22.58;;;16.50;99.90;;;;;;5068615;28;20048;-64
2022/09/07 04:16:19;;;;;;;30.83;23.98;;;16.50;99.90;;;;;;5068749;28;20059;-64
2022/09/07 04:18:45;;;;;;;28.33;22.48;;;16.50;99.90;;;;;;5069923;28;20028;-65
2022/09/07 04:21:12;;;;;;;28.30;22.90;;;16.50;99.90;;;;;;5052507;28;20029;-66
2022/09/07 04:23:39;;;;;;;26.83;21.98;;;16.50;99.90;;;;;;5067920;28;20456;-64
2022/09/07 04:26:05;;;;;;;25.45;21.63;;;16.40;99.90;;;;;;5070206;28;20044;-66
2022/09/07 04:28:30;;;;;;;23.88;21.15;;;16.40;99.90;;;;;;5068969;28;20041;-65
2022/09/07 04:31:00;;;;;;;26.38;20.90;;;16.40;99.90;;;;;;5069982;28;20040;-64
2022/09/07 04:33:26;;;;;;;27.73;21.42;;;16.40;99.90;;;;;;5068395;28;20151;-65
2022/09/07 04:35:52;;;;;;;26.75;21.67;;;16.30;99.90;;;;;;5068305;28;20049;-64
2022/09/07 04:38:18;;;;;;;24.58;20.45;;;16.30;99.90;;;;;;5069446;28;20045;-65
2022/09/07 04:40:43;;;;;;;24.98;20.70;;;16.20;99.90;;;;;;5069107;28;20109;-65
2022/09/07 04:43:11;;;;;;;24.98;21.30;;;16.20;99.90;;;;;;5052780;28;20390;-65
2022/09/07 04:45:38;;;;;;;22.90;20.40;;;16.20;99.90;;;;;;5068840;28;20064;-65
2022/09/07 04:48:04;;;;;;;28.42;21.02;;;16.20;99.90;;;;;;5067843;28;20390;-65
2022/09/07 04:50:30;;;;;;;26.98;21.80;;;16.20;99.90;;;;;;5068341;28;20036;-67
2022/09/07 04:52:55;;;;;;;29.05;22.48;;;16.20;99.90;;;;;;5068917;28;20154;-66
2022/09/07 04:55:21;;;;;;;27.35;22.95;;;16.10;99.90;;;;;;5068320;28;20524;-65
2022/09/07 04:57:50;;;;;;;25.90;20.48;;;16.10;99.90;;;;;;5064734;28;20062;-66
2022/09/07 05:00:15;;;;;;;27.10;21.40;;;16.10;99.90;;;;;;5068765;28;20193;-66
2022/09/07 05:02:41;;;;;;;25.65;21.20;;;16.10;99.90;;;;;;5069970;28;20545;-67
2022/09/07 05:05:07;;;;;;;29.27;23.50;;;16.10;99.90;;;;;;5066064;28;20116;-67
2022/09/07 05:07:33;;;;;;;25.55;21.75;;;16.10;99.90;;;;;;5066863;28;20047;-67
2022/09/07 05:09:59;;;;;;;26.98;22.83;;;16.10;99.90;;;;;;5068411;28;20032;-67
2022/09/07 05:12:24;;;;;;;34.03;26.23;;;16.10;99.90;;;;;;5067759;28;20529;-66
2022/09/07 05:14:51;;;;;;;29.25;23.95;;;16.10;99.90;;;;;;5071528;28;20043;-67
2022/09/07 05:17:18;;;;;;;29.40;25.17;;;16.10;99.90;;;;;;5068287;28;20036;-67
2022/09/07 05:19:43;;;;;;;36.47;25.15;;;16.10;99.90;;;;;;5071311;28;20041;-67
2022/09/07 05:22:09;;;;;;;33.83;25.17;;;16.10;99.90;;;;;;5070336;28;20046;-67
2022/09/07 05:24:35;;;;;;;35.58;25.75;;;16.10;99.90;;;;;;5054234;28;20036;-67
2022/09/07 05:27:02;;;;;;;37.38;27.02;;;16.20;99.90;;;;;;5054770;28;20178;-67
2022/09/07 05:29:29;;;;;;;35.65;27.73;;;16.20;99.90;;;;;;5070115;28;20044;-67
2022/09/07 05:31:55;;;;;;;32.67;25.02;;;16.20;99.90;;;;;;5072231;28;20041;-67
2022/09/07 05:34:21;;;;;;;34.65;25.48;;;16.30;99.90;;;;;;5071973;28;20059;-67
2022/09/07 05:36:47;;;;;;;35.08;26.58;;;16.30;99.90;;;;;;5069967;28;20057;-69
2022/09/07 05:39:13;;;;;;;34.35;24.75;;;16.30;99.90;;;;;;5037098;28;20046;-68
2022/09/07 05:41:38;;;;;;;34.70;25.00;;;16.30;99.90;;;;;;5071887;28;20500;-67
2022/09/07 05:44:05;;;;;;;31.95;25.17;;;16.30;99.90;;;;;;5071085;28;20036;-67
2022/09/07 05:46:32;;;;;;;32.90;25.67;;;16.30;99.90;;;;;;5072089;28;20557;-67
2022/09/07 05:48:59;;;;;;;33.08;24.00;;;16.30;99.90;;;;;;5070336;28;20040;-67
2022/09/07 05:51:25;;;;;;;30.17;24.05;;;16.30;99.90;;;;;;5070680;28;20055;-67
2022/09/07 05:53:51;;;;;;;31.25;24.00;;;16.40;99.90;;;;;;5069381;28;20036;-68
2022/09/07 05:56:16;;;;;;;30.98;25.20;;;16.40;99.90;;;;;;5053824;28;20041;-67
2022/09/07 05:58:47;;;;;;;30.08;23.92;;;16.40;99.90;;;;;;5067591;28;20093;-67
2022/09/07 06:01:13;;;;;;;29.90;24.55;;;16.40;99.90;;;;;;5072011;28;20574;-67
2022/09/07 06:03:40;;;;;;;30.23;24.42;;;16.50;99.90;;;;;;5070416;28;20616;-67
2022/09/07 06:06:15;;;;;;;31.55;24.13;;;16.50;99.90;;;;;;5069882;28;20131;-67
2022/09/07 06:08:46;;;;;;;29.98;24.13;;;16.50;99.90;;;;;;5068973;28;20044;-67
2022/09/07 06:11:16;;;;;;;37.83;25.60;;;16.50;99.90;;;;;;5070529;28;20111;-67
2022/09/07 06:13:42;;;;;;;35.13;24.67;;;16.50;99.90;;;;;;5070275;28;20040;-67
2022/09/07 06:16:09;;;;;;;29.35;23.10;;;16.60;99.90;;;;;;5053667;28;20047;-67
2022/09/07 06:18:44;;;;;;;30.95;23.27;;;16.60;99.90;;;;;;5070429;28;20106;-67
2022/09/07 06:21:19;;;;;;;32.80;22.67;;;16.60;99.90;;;;;;5071362;28;20032;-68
2022/09/07 06:23:46;;;;;;;35.33;26.00;;;16.60;99.90;;;;;;5068009;28;20041;-67
2022/09/07 06:26:13;;;;;;;29.60;24.33;;;16.60;99.90;;;;;;5067905;28;20493;-67
2022/09/07 06:28:46;;;;;;;32.58;24.13;;;16.70;99.90;;;;;;5069422;28;20122;-67
2022/09/07 06:31:14;;;;;;;30.90;25.17;;;16.70;99.90;;;;;;5071174;28;20119;-67
2022/09/07 06:33:41;;;;;;;34.78;25.00;;;16.70;99.90;;;;;;5036266;28;20052;-67
2022/09/07 06:36:12;;;;;;;33.95;25.52;;;16.70;99.90;;;;;;5070050;28;20512;-67
2022/09/07 06:38:38;;;;;;;36.45;26.00;;;16.80;99.90;;;;;;5070100;28;20115;-67
2022/09/07 06:41:12;;;;;;;33.78;26.30;;;16.80;99.90;;;;;;5053135;28;20067;-67
2022/09/07 06:43:39;;;;;;;33.05;24.73;;;17.60;99.90;;;;;;5066946;28;20115;-67
2022/09/07 06:46:05;;;;;;;39.28;29.02;;;16.90;99.90;;;;;;5070097;28;20040;-67
2022/09/07 06:48:32;;;;;;;41.83;28.08;;;17.00;99.90;;;;;;5070786;28;20040;-67
2022/09/07 06:51:06;;;;;;;37.45;28.10;;;17.00;99.90;;;;;;5068986;28;20067;-67
2022/09/07 06:53:34;;;;;;;36.72;26.45;;;17.10;99.90;;;;;;5068853;28;20036;-67
2022/09/07 06:56:03;;;;;;;35.03;25.13;;;17.10;99.90;;;;;;5070565;28;20619;-67
2022/09/07 06:58:29;;;;;;;36.00;24.20;;;17.10;99.90;;;;;;5069501;28;20033;-67
2022/09/07 07:00:55;;;;;;;30.77;23.17;;;17.20;99.90;;;;;;5069352;28;20073;-67
2022/09/07 07:03:21;;;;;;;30.60;22.50;;;17.10;99.90;;;;;;5068715;28;20035;-67
2022/09/07 07:05:55;;;;;;;28.33;22.55;;;17.10;99.90;;;;;;5069138;28;20056;-67
2022/09/07 07:08:23;;;;;;;32.85;23.38;;;17.10;99.90;;;;;;5069700;28;20044;-67
2022/09/07 07:10:49;;;;;;;27.13;21.55;;;17.10;99.90;;;;;;5052856;28;20486;-67
2022/09/07 07:13:16;;;;;;;27.15;20.67;;;17.10;99.90;;;;;;5070205;28;20036;-68
2022/09/07 07:15:42;;;;;;;34.45;23.52;;;17.10;99.90;;;;;;5068901;28;20063;-67
2022/09/07 07:18:09;;;;;;;30.15;21.88;;;17.10;99.90;;;;;;5069088;28;20110;-67
2022/09/07 07:20:36;;;;;;;33.17;23.33;;;17.00;99.90;;;;;;5070455;28;20037;-68
2022/09/07 07:23:02;;;;;;;31.35;23.27;;;17.10;99.90;;;;;;5069164;28;20052;-68
2022/09/07 07:25:28;;;;;;;33.83;23.73;;;17.10;99.90;;;;;;5067570;28;20035;-68
2022/09/07 07:27:53;;;;;;;30.45;23.92;;;17.10;99.90;;;;;;5051843;28;20480;-67
2022/09/07 07:30:19;;;;;;;31.38;24.30;;;17.10;99.90;;;;;;5069235;28;20105;-67
2022/09/07 07:32:46;;;;;;;33.85;24.15;;;17.20;99.90;;;;;;5068558;28;20566;-67
2022/09/07 07:35:18;;;;;;;30.80;23.60;;;17.20;99.90;;;;;;5051442;28;20048;-67
2022/09/07 07:37:44;;;;;;;33.97;24.23;;;17.30;99.90;;;;;;5068520;28;20033;-67
2022/09/07 07:40:12;;;;;;;31.42;23.50;;;17.30;99.90;;;;;;5068225;28;20046;-67
2022/09/07 07:42:41;;;;;;;34.58;23.08;;;17.30;99.90;;;;;;5069501;28;20040;-68
2022/09/07 07:45:09;;;;;;;34.05;24.35;;;17.30;99.90;;;;;;5068763;28;20451;-67
2022/09/07 07:47:34;;;;;;;34.70;23.58;;;17.30;99.90;;;;;;5068709;28;20071;-67
2022/09/07 07:50:01;;;;;;;31.05;22.80;;;17.30;99.90;;;;;;5048535;28;20076;-67
2022/09/07 07:52:38;;;;;;;32.55;23.45;;;17.30;99.90;;;;;;5068634;28;20456;-67
2022/09/07 07:55:05;;;;;;;37.15;25.02;;;17.30;99.90;;;;;;5068125;28;20112;-68
2022/09/07 07:57:32;;;;;;;34.17;23.23;;;17.30;99.90;;;;;;5068358;28;20044;-67
2022/09/07 07:59:57;;;;;;;33.00;22.98;;;17.30;99.90;;;;;;5065228;28;20507;-68
2022/09/07 08:02:23;;;;;;;33.33;22.90;;;17.30;99.90;;;;;;5069635;28;20044;-68
2022/09/07 08:04:49;;;;;;;34.78;23.88;;;17.30;99.90;;;;;;5068443;28;20114;-67
2022/09/07 08:07:15;;;;;;;39.38;24.60;;;17.20;99.90;;;;;;5068255;28;20048;-67
2022/09/07 08:09:43;;;;;;;36.22;25.52;;;17.20;99.90;;;;;;5066167;28;20044;-68
2022/09/07 08:12:12;;;;;;;35.40;24.60;;;17.30;99.90;;;;;;5069574;28;20082;-68
2022/09/07 08:14:42;;;;;;;35.75;25.00;;;17.30;99.90;;;;;;5067104;28;20048;-68
2022/09/07 08:17:09;;;;;;;38.08;25.92;;;17.30;99.90;;;;;;5068078;28;20045;-68
2022/09/07 08:19:35;;;;;;;36.83;24.63;;;17.30;99.90;;;;;;5069349;28;20851;-68
2022/09/07 08:22:02;;;;;;;38.42;26.67;;;17.30;99.90;;;;;;5068510;28;20115;-68
2022/09/07 08:24:30;;;;;;;40.33;26.95;;;17.40;99.90;;;;;;5050486;28;20094;-68
2022/09/07 08:26:56;;;;;;;45.65;28.25;;;17.50;99.90;;;;;;5065578;28;20044;-68
2022/09/07 08:29:22;;;;;;;43.67;27.23;;;17.60;99.90;;;;;;5059754;28;20489;-68
2022/09/07 08:31:48;;;;;;;40.38;28.40;;;17.60;99.90;;;;;;5054935;28;20071;-68
2022/09/07 08:34:14;;;;;;;46.05;30.20;;;17.70;99.90;;;;;;5060888;28;20056;-68
2022/09/07 08:36:40;;;;;;;39.67;27.25;;;17.70;99.90;;;;;;5059088;28;20037;-68
2022/09/07 08:39:06;;;;;;;38.75;26.90;;;17.60;99.90;;;;;;5064370;28;21399;-68
2022/09/07 08:42:14;;;;;;;39.85;27.05;;;17.70;99.90;;;;;;5059151;28;20039;-68
2022/09/07 08:44:48;;;;;;;42.65;28.13;;;17.80;99.90;;;;;;5058324;28;20520;-68
2022/09/07 08:47:28;;;;;;;38.90;26.05;;;17.80;99.90;;;;;;5041009;28;20044;-68
2022/09/07 08:50:20;;;;;;;39.00;26.25;;;17.80;99.90;;;;;;5078276;28;20125;-68
2022/09/07 08:52:57;;;;;;;39.50;27.48;;;17.90;99.90;;;;;;5061506;28;20112;-69
2022/09/07 08:55:47;;;;;;;46.75;28.20;;;18.00;99.90;;;;;;5074333;28;20505;-68
2022/09/07 08:58:19;;;;;;;35.67;24.58;;;18.00;99.90;;;;;;5063316;28;20032;-68
2022/09/07 09:00:48;;;;;;;36.88;26.90;;;18.00;99.90;;;;;;5059979;28;20032;-68
2022/09/07 09:03:25;;;;;;;38.50;26.88;;;18.10;99.90;;;;;;5064747;28;20045;-68
2022/09/07 09:05:57;;;;;;;35.92;25.88;;;18.10;99.90;;;;;;5062112;28;20140;-68
2022/09/07 09:08:52;;;;;;;36.83;25.90;;;18.10;99.90;;;;;;5066041;28;20064;-68
2022/09/07 09:11:52;;;;;;;36.15;25.00;;;18.10;99.90;;;;;;5064509;28;20040;-68
2022/09/07 09:14:52;;;;;;;38.53;27.38;;;18.10;99.90;;;;;;5045421;28;20032;-68
2022/09/07 09:17:36;;;;;;;36.40;25.58;;;18.10;99.90;;;;;;5060874;28;20086;-68
2022/09/07 09:20:20;;;;;;;33.53;24.95;;;18.20;99.90;;;;;;5063576;28;20048;-67
2022/09/07 09:22:45;;;;;;;32.13;24.92;;;18.20;99.90;;;;;;5061579;28;20094;-68
2022/09/07 09:25:29;;;;;;;37.22;26.27;;;18.20;99.90;;;;;;5060431;28;20045;-68
2022/09/07 09:27:54;;;;;;;34.38;25.08;;;18.30;99.90;;;;;;5063100;28;20059;-68
2022/09/07 09:30:22;;;;;;;36.10;25.77;;;18.30;99.90;;;;;;5066115;28;20036;-68
2022/09/07 09:32:51;;;;;;;37.35;25.20;;;18.30;99.90;;;;;;5057841;28;20060;-68
2022/09/07 09:35:38;;;;;;;34.70;24.48;;;18.20;99.90;;;;;;5057649;28;20041;-68
2022/09/07 09:38:04;;;;;;;37.55;26.42;;;18.20;99.90;;;;;;5071763;28;20052;-69
2022/09/07 09:40:32;;;;;;;36.05;25.27;;;18.20;99.90;;;;;;5059378;28;20044;-68
2022/09/07 09:43:16;;;;;;;32.80;23.70;;;18.30;99.90;;;;;;5069862;28;20401;-69
2022/09/07 09:45:49;;;;;;;31.98;22.70;;;18.30;99.90;;;;;;5058517;28;20139;-68
2022/09/07 09:48:33;;;;;;;35.08;25.88;;;18.30;99.90;;;;;;5056772;28;20045;-68
2022/09/07 09:51:01;;;;;;;29.75;22.10;;;18.30;99.90;;;;;;5059270;28;20102;-68
2022/09/07 09:53:35;;;;;;;29.15;22.70;;;18.30;99.90;;;;;;5063218;28;20043;-68
2022/09/07 09:56:03;;;;;;;31.90;23.90;;;18.30;99.90;;;;;;5074259;28;20068;-68
2022/09/07 09:58:36;;;;;;;29.55;21.23;;;18.30;99.90;;;;;;5065080;28;20093;-68
2022/09/07 10:01:05;;;;;;;29.52;21.08;;;18.30;99.90;;;;;;5064770;28;20067;-68
2022/09/07 10:03:33;;;;;;;27.98;22.05;;;18.20;99.90;;;;;;5065521;28;20091;-68
2022/09/07 10:06:06;;;;;;;30.30;22.63;;;18.20;99.90;;;;;;5063280;28;20623;-68
2022/09/07 10:08:33;;;;;;;28.92;21.17;;;18.10;99.90;;;;;;5063720;28;20089;-68
2022/09/07 10:11:01;;;;;;;28.50;21.08;;;18.20;99.90;;;;;;5063565;28;20032;-68
2022/09/07 10:13:30;;;;;;;29.02;20.90;;;18.20;99.90;;;;;;5076715;28;20458;-68
2022/09/07 10:15:59;;;;;;;27.33;20.40;;;18.20;99.90;;;;;;5062490;28;20040;-68
2022/09/07 10:18:33;;;;;;;23.77;18.85;;;18.20;99.90;;;;;;5063733;28;20049;-68
2022/09/07 10:21:21;;;;;;;22.30;17.67;;;18.20;99.90;;;;;;5059482;28;20033;-68
2022/09/07 10:23:53;;;;;;;20.10;15.77;;;18.30;99.90;;;;;;5061460;28;20056;-69
2022/09/07 10:26:34;;;;;;;20.80;16.17;;;18.30;99.90;;;;;;5057676;28;20136;-68
2022/09/07 10:29:14;;;;;;;23.30;17.17;;;18.30;99.90;;;;;;5060908;28;20124;-68
2022/09/07 10:32:08;;;;;;;22.75;15.57;;;18.40;99.90;;;;;;5051852;28;20521;-69
2022/09/07 10:34:41;;;;;;;21.40;16.75;;;18.40;99.90;;;;;;5063282;28;20053;-68
2022/09/07 10:37:10;;;;;;;23.17;17.50;;;18.50;99.90;;;;;;5064203;28;20037;-69
2022/09/07 10:40:21;;;;;;;23.90;17.63;;;18.60;99.90;;;;;;5072744;28;20202;-69
2022/09/07 10:43:16;;;;;;;20.13;16.30;;;18.80;99.90;;;;;;5041649;28;20436;-69
2022/09/07 10:45:58;;;;;;;19.88;15.30;;;19.00;99.90;;;;;;5055270;28;20097;-69
2022/09/07 10:48:33;;;;;;;17.92;13.50;;;19.20;99.90;;;;;;5060654;28;20123;-68
2022/09/07 10:51:04;;;;;;;15.25;13.25;;;19.40;99.90;;;;;;5060880;28;20039;-69
2022/09/07 10:53:30;;;;;;;18.65;15.38;;;19.50;99.90;;;;;;5067511;28;20042;-68
2022/09/07 10:56:18;;;;;;;17.40;13.95;;;19.70;99.90;;;;;;5049916;28;20037;-68
2022/09/07 10:58:50;;;;;;;20.08;14.93;;;19.60;99.90;;;;;;5060345;28;20075;-69
2022/09/07 11:01:38;;;;;;;17.95;14.73;;;19.40;99.90;;;;;;5059325;28;20123;-68
2022/09/07 11:04:16;;;;;;;15.65;12.70;;;19.30;99.90;;;;;;5058899;28;20035;-69
2022/09/07 11:06:47;;;;;;;17.48;14.02;;;19.20;99.90;;;;;;5042297;28;20132;-69
2022/09/07 11:09:33;;;;;;;14.35;12.73;;;19.10;99.90;;;;;;5057030;28;20044;-68
2022/09/07 11:12:28;;;;;;;17.90;14.88;;;19.10;99.90;;;;;;5058140;28;20611;-68
2022/09/07 11:15:09;;;;;;;19.52;14.80;;;19.10;99.90;;;;;;5062552;28;20072;-68
2022/09/07 11:17:50;;;;;;;19.55;13.98;;;19.10;99.90;;;;;;5061401;28;20602;-69
2022/09/07 11:20:28;;;;;;;17.02;13.40;;;19.20;99.90;;;;;;5061876;28;20044;-69
2022/09/07 11:23:16;;;;;;;15.38;13.10;;;19.30;99.90;;;;;;5058654;28;20056;-68
2022/09/07 11:26:06;;;;;;;17.38;13.70;;;19.60;99.90;;;;;;5055610;28;20051;-68
2022/09/07 11:28:47;;;;;;;18.40;12.80;;;19.80;99.90;;;;;;5060900;28;20083;-68
2022/09/07 11:31:39;;;;;;;14.18;10.88;;;20.10;99.90;;;;;;5059034;28;20512;-68
2022/09/07 11:34:09;;;;;;;12.18;10.77;;;20.20;99.90;;;;;;5053484;28;20080;-68
2022/09/07 11:36:43;;;;;;;15.55;10.70;;;20.30;99.90;;;;;;5054249;28;20036;-68
2022/09/07 11:39:28;;;;;;;10.93;9.13;;;20.50;99.90;;;;;;5057645;28;20041;-68
2022/09/07 11:42:40;;;;;;;14.23;10.55;;;20.80;99.90;;;;;;5053823;28;20071;-69
2022/09/07 11:45:22;;;;;;;10.52;9.35;;;20.90;99.90;;;;;;5033100;28;20036;-69
2022/09/07 11:48:04;;;;;;;12.18;9.52;;;20.70;99.90;;;;;;5072498;28;20040;-68
2022/09/07 11:50:35;;;;;;;12.45;9.23;;;20.60;99.90;;;;;;5059918;28;20045;-69
2022/09/07 11:53:19;;;;;;;11.80;9.07;;;20.70;99.90;;;;;;5059822;28;20045;-68
2022/09/07 11:55:49;;;;;;;11.07;9.02;;;20.70;99.90;;;;;;5062612;28;20547;-68
2022/09/07 11:58:36;;;;;;;9.75;8.35;;;20.70;99.90;;;;;;5054797;28;20044;-68
2022/09/07 12:01:31;;;;;;;10.40;9.30;;;20.90;99.90;;;;;;5075554;28;20444;-68
2022/09/07 12:03:59;;;;;;;9.82;8.23;;;20.90;99.90;;;;;;5056521;28;20059;-69
2022/09/07 12:06:49;;;;;;;8.30;7.47;;;21.00;99.90;;;;;;5058457;28;20041;-68
2022/09/07 12:09:22;;;;;;;9.27;7.50;;;21.10;99.90;;;;;;5054703;28;20590;-68
2022/09/07 12:12:07;;;;;;;10.90;8.40;;;21.30;99.90;;;;;;5054862;28;20045;-68
2022/09/07 12:14:51;;;;;;;10.10;9.10;;;21.40;99.90;;;;;;5066879;28;20636;-68
2022/09/07 12:17:42;;;;;;;9.77;7.50;;;21.40;99.90;;;;;;5073312;28;20085;-69
2022/09/07 12:20:16;;;;;;;9.38;7.57;;;21.40;99.90;;;;;;5059002;28;20101;-69
2022/09/07 12:22:57;;;;;;;10.43;7.82;;;21.50;99.90;;;;;;5061177;28;20097;-66
2022/09/07 12:25:24;;;;;;;7.70;6.65;;;21.60;99.90;;;;;;5057740;28;20028;-67
2022/09/07 12:27:51;;;;;;;9.07;7.32;;;21.60;99.90;;;;;;5058070;28;20380;-67
2022/09/07 12:30:19;;;;;;;8.70;6.68;;;21.70;99.90;;;;;;5052586;28;20040;-67
2022/09/07 12:32:52;;;;;;;9.50;6.82;;;21.80;99.90;;;;;;5042141;28;20102;-67
2022/09/07 12:35:29;;;;;;;7.90;6.55;;;21.80;99.90;;;;;;5062159;28;20124;-68
2022/09/07 12:37:57;;;;;;;7.93;7.03;;;22.00;99.90;;;;;;5057830;28;20048;-68
2022/09/07 12:40:32;;;;;;;7.15;6.43;;;22.20;99.90;;;;;;5042944;28;20032;-68
2022/09/07 12:43:13;;;;;;;7.00;6.30;;;22.30;99.90;;;;;;5058045;28;20044;-67
2022/09/07 12:45:38;;;;;;;6.80;5.63;;;22.20;99.90;;;;;;5043966;28;20124;-67
2022/09/07 12:48:16;;;;;;;8.32;6.57;;;22.10;99.90;;;;;;5062303;28;20447;-67
2022/09/07 12:51:03;;;;;;;7.80;6.15;;;21.90;99.90;;;;;;5057560;28;20041;-67
2022/09/07 12:53:41;;;;;;;8.82;6.78;;;21.80;99.90;;;;;;5060571;28;20041;-67
2022/09/07 12:56:21;;;;;;;6.95;5.60;;;21.80;99.90;;;;;;5061758;28;20037;-67